Hovedside
METAR-TAF:

METAR-TAF

Lufthavner :

Piešťany, Slovakia

breddegrad: 48-37-30N, lengdegrad: 017-49-43E, høyde over havet: 163 m

Gjeldene værobservasjon

Denne rapporten ble laget for 7 minutter siden, klokken 10:00 UTC
Vind 9 kt fra Sørøst, skiftende mellom Øst og Sør
Temperatur 29°C
Luftfuktighet 55%
Trykk 1013 hPa
Sikt 10 km eller mer
ingen skyer under 1500 m og ingen bygeskyer

METAR: LZPP 191000Z 14009KT 090V180 CAVOK 29/19 Q1013

Tid: 12:07 (10:07 UTC)

Varsel

Denne rapporten ble laget for 1 time og 52 minutter siden, klokken 08:15 UTC
Varsel gyldig fra 19. klokken 09 UTC til 19. klokken 18 UTC
Vind 10 kt fra Sør-sørøst
Sikt 10 km eller mer
ingen skyer under 1500 m og ingen bygeskyer

TAF: LZPP 190815Z 1909/1918 16010KT CAVOK

Værobservasjoner og værvarsel for over 4000 flyplasser (METAR- og TAF-rapporter).

Tilgjengelige stasjoner er representert av de røde og gule prikkene på kartet.

Hold musepekeren over prikken for å se navnet på stasjonen.

Klikk så for å se værobservasjoner og -varsler.

For å forandre kartet kan du klikke på den grønne knappen med svart kryss for å zoome inn, på den grønne knappen med strek for å zoome ut, eller på de grønne pilene for å se tilstøtende kart.


METAR-TAF: